createdAt,value
2023-04-20T00:00:59.511Z,2.2
2023-04-20T00:02:01.586Z,2.2
2023-04-20T00:03:03.729Z,2.2
2023-04-20T00:04:06.530Z,2.2
2023-04-20T00:05:08.575Z,2.2
2023-04-20T00:06:11.469Z,2.2
2023-04-20T00:07:13.527Z,2.2
2023-04-20T00:08:15.467Z,2.3
2023-04-20T00:09:17.636Z,2.4
2023-04-20T00:10:19.473Z,2.4
2023-04-20T00:11:21.574Z,2.3
2023-04-20T00:12:23.476Z,2.3
2023-04-20T00:13:26.479Z,2.3
2023-04-20T00:14:28.484Z,2.3
2023-04-20T00:15:30.481Z,2.3
2023-04-20T00:16:33.555Z,2.2
2023-04-20T00:17:35.525Z,2.2
2023-04-20T00:18:37.494Z,2.2
2023-04-20T00:20:41.498Z,2.2
2023-04-20T00:21:43.531Z,2.3
2023-04-20T00:23:47.483Z,2.2
2023-04-20T00:24:49.488Z,2.3
2023-04-20T00:25:51.545Z,2.3
2023-04-20T00:26:55.533Z,2.3
2023-04-20T00:27:57.498Z,2.2
2023-04-20T00:28:59.625Z,2.2
2023-04-20T00:30:01.496Z,2.2
2023-04-20T00:31:14.624Z,2.2
2023-04-20T00:32:14.600Z,2.2
2023-04-20T00:33:14.605Z,2.1
2023-04-20T00:34:14.644Z,2.1
2023-04-20T00:35:14.599Z,2.1
2023-04-20T00:36:14.612Z,2.1
2023-04-20T00:37:15.489Z,2.1
2023-04-20T00:38:17.496Z,2.1
2023-04-20T00:39:19.634Z,2.1
2023-04-20T00:40:21.490Z,2.1
2023-04-20T00:41:23.493Z,2.1
2023-04-20T00:42:25.542Z,2.1
2023-04-20T00:43:40.187Z,2.1
2023-04-20T00:44:29.494Z,2.1
2023-04-20T00:45:31.508Z,2.1
2023-04-20T00:46:33.546Z,2.1
2023-04-20T00:47:35.526Z,2.1
2023-04-20T00:48:37.489Z,2.1
2023-04-20T00:49:39.492Z,2.1
2023-04-20T00:50:41.570Z,2.1
2023-04-20T00:51:44.501Z,2.1
2023-04-20T00:52:46.550Z,2.1
2023-04-20T00:53:48.484Z,2.1
2023-04-20T00:54:51.541Z,2.1
2023-04-20T00:56:14.648Z,2.1
2023-04-20T00:57:14.620Z,2.1
2023-04-20T00:58:14.676Z,2.1
2023-04-20T00:59:14.827Z,2.1
2023-04-20T01:00:14.654Z,2.1
2023-04-20T01:01:14.636Z,2.1
2023-04-20T01:02:14.661Z,2.1
2023-04-20T01:03:14.767Z,2
2023-04-20T01:04:14.727Z,2
2023-04-20T01:06:14.662Z,2.1
2023-04-20T01:07:14.622Z,2.1
2023-04-20T01:08:14.620Z,2
2023-04-20T01:09:14.666Z,2
2023-04-20T01:10:14.624Z,2
2023-04-20T01:11:14.719Z,2
2023-04-20T01:12:14.634Z,1.9
2023-04-20T01:13:14.681Z,1.9
2023-04-20T01:14:14.630Z,1.9
2023-04-20T01:15:14.624Z,1.9
2023-04-20T01:16:14.759Z,1.9
2023-04-20T01:17:14.623Z,1.9
2023-04-20T01:18:14.635Z,1.9
2023-04-20T01:19:14.646Z,1.9
2023-04-20T01:20:14.690Z,1.9
2023-04-20T01:21:14.675Z,1.9
2023-04-20T01:22:14.636Z,1.9
2023-04-20T01:23:14.625Z,1.9
2023-04-20T01:24:14.631Z,1.9
2023-04-20T01:25:14.637Z,1.9
2023-04-20T01:26:14.684Z,1.9
2023-04-20T01:27:14.641Z,2
2023-04-20T01:28:14.688Z,2
2023-04-20T01:29:14.728Z,2
2023-04-20T01:30:14.693Z,2
2023-04-20T01:31:14.651Z,2
2023-04-20T01:32:14.634Z,2
2023-04-20T01:33:14.679Z,2
2023-04-20T01:34:14.756Z,2
2023-04-20T01:35:16.606Z,2
2023-04-20T01:36:18.519Z,2
2023-04-20T01:37:20.532Z,2
2023-04-20T01:38:22.522Z,1.9
2023-04-20T01:39:24.572Z,1.8
2023-04-20T01:41:14.705Z,1.8
2023-04-20T01:42:14.648Z,1.8
2023-04-20T01:43:14.652Z,1.8
2023-04-20T01:44:14.692Z,1.8
2023-04-20T01:45:14.644Z,1.8
2023-04-20T01:46:14.730Z,1.8
2023-04-20T01:47:14.696Z,1.7
2023-04-20T01:48:14.715Z,1.7
2023-04-20T01:49:14.651Z,1.7
2023-04-20T01:50:14.658Z,1.7
2023-04-20T01:51:14.649Z,1.7
2023-04-20T01:52:14.697Z,1.7
2023-04-20T01:53:14.658Z,1.7
2023-04-20T01:54:14.649Z,1.7
2023-04-20T01:55:14.699Z,1.7
2023-04-20T01:56:14.654Z,1.7
2023-04-20T01:57:14.650Z,1.8
2023-04-20T01:58:14.657Z,1.7
2023-04-20T01:59:14.712Z,1.7
2023-04-20T02:00:14.706Z,1.7
2023-04-20T02:01:14.740Z,1.7
2023-04-20T02:02:14.733Z,1.7
2023-04-20T02:03:15.725Z,1.7
2023-04-20T02:04:17.636Z,1.7
2023-04-20T02:05:19.594Z,1.7
2023-04-20T02:06:21.538Z,1.7
2023-04-20T02:07:23.550Z,1.7
2023-04-20T02:08:25.554Z,1.7
2023-04-20T02:09:27.562Z,1.7
2023-04-20T02:10:29.549Z,1.7
2023-04-20T02:11:31.553Z,1.7
2023-04-20T02:12:33.542Z,1.7
2023-04-20T02:13:35.566Z,1.6
2023-04-20T02:14:37.545Z,1.6
2023-04-20T02:15:39.603Z,1.6
2023-04-20T02:16:41.583Z,1.6
2023-04-20T02:17:43.563Z,1.6
2023-04-20T02:18:45.597Z,1.6
2023-04-20T02:19:47.559Z,1.6
2023-04-20T02:20:49.601Z,1.6
2023-04-20T02:21:51.597Z,1.6
2023-04-20T02:22:54.557Z,1.6
2023-04-20T02:23:56.585Z,1.6
2023-04-20T02:24:58.562Z,1.7
2023-04-20T02:26:00.615Z,1.7
2023-04-20T02:27:02.553Z,1.7
2023-04-20T02:28:04.578Z,1.7
2023-04-20T02:29:06.586Z,1.7
2023-04-20T02:30:08.562Z,1.7
2023-04-20T02:31:10.667Z,1.7
2023-04-20T02:32:12.570Z,1.7
2023-04-20T02:33:14.614Z,1.7
2023-04-20T02:34:17.572Z,1.6
2023-04-20T02:35:19.574Z,1.6
2023-04-20T02:36:21.561Z,1.6
2023-04-20T02:37:23.572Z,1.6
2023-04-20T02:38:26.620Z,1.6
2023-04-20T02:39:28.567Z,1.6
2023-04-20T02:40:30.572Z,1.6
2023-04-20T02:41:33.636Z,1.7
2023-04-20T02:42:35.635Z,1.7
2023-04-20T02:43:37.651Z,1.7
2023-04-20T02:44:39.581Z,1.7
2023-04-20T02:45:41.569Z,1.7
2023-04-20T02:46:43.628Z,1.8
2023-04-20T02:47:45.621Z,1.8
2023-04-20T02:48:47.622Z,1.8
2023-04-20T02:49:49.574Z,1.8
2023-04-20T02:50:51.638Z,1.8
2023-04-20T02:51:55.573Z,1.7
2023-04-20T02:52:57.591Z,1.7
2023-04-20T02:53:59.585Z,1.7
2023-04-20T02:55:01.639Z,1.7
2023-04-20T02:56:03.583Z,1.7
2023-04-20T02:57:05.598Z,1.7
2023-04-20T02:58:07.633Z,1.7
2023-04-20T02:59:09.625Z,1.7
2023-04-20T03:01:13.596Z,1.7
2023-04-20T03:02:15.682Z,1.7
2023-04-20T03:03:17.811Z,1.7
2023-04-20T03:04:20.739Z,1.7
2023-04-20T03:05:24.224Z,1.8
2023-04-20T03:06:27.201Z,1.8
2023-04-20T03:07:29.263Z,1.8
2023-04-20T03:08:32.196Z,1.7
2023-04-20T03:09:34.207Z,1.7
2023-04-20T03:10:36.214Z,1.8
2023-04-20T03:11:38.217Z,1.8
2023-04-20T03:12:40.256Z,1.8
2023-04-20T03:13:42.255Z,1.8
2023-04-20T03:14:45.212Z,1.8
2023-04-20T03:15:47.218Z,1.8
2023-04-20T03:16:49.241Z,1.8
2023-04-20T03:17:52.351Z,1.8
2023-04-20T03:18:55.209Z,1.8
2023-04-20T03:19:57.283Z,1.8
2023-04-20T03:20:59.217Z,1.8
2023-04-20T03:22:01.209Z,1.8
2023-04-20T03:23:03.228Z,1.8
2023-04-20T03:24:05.216Z,1.8
2023-04-20T03:25:07.265Z,1.8
2023-04-20T03:26:09.219Z,1.8
2023-04-20T03:27:11.211Z,1.8
2023-04-20T03:28:13.259Z,1.8
2023-04-20T03:29:15.283Z,1.8
2023-04-20T03:30:18.253Z,1.8
2023-04-20T03:31:20.239Z,1.8
2023-04-20T03:32:22.270Z,1.8
2023-04-20T03:33:24.225Z,1.8
2023-04-20T03:34:26.219Z,1.8
2023-04-20T03:35:28.449Z,1.8
2023-04-20T03:36:30.218Z,1.9
2023-04-20T03:38:14.749Z,1.9
2023-04-20T03:39:14.925Z,1.9
2023-04-20T03:40:14.756Z,1.9
2023-04-20T03:41:14.817Z,1.9
2023-04-20T03:42:14.721Z,1.9
2023-04-20T03:43:14.762Z,1.9
2023-04-20T03:44:14.769Z,1.9
2023-04-20T03:45:14.726Z,1.9
2023-04-20T03:46:14.868Z,1.9
2023-04-20T03:47:14.774Z,1.9
2023-04-20T03:48:14.728Z,1.9
2023-04-20T03:49:14.743Z,1.9
2023-04-20T03:50:14.730Z,1.9
2023-04-20T03:51:14.749Z,1.9
2023-04-20T03:52:14.778Z,1.9
2023-04-20T03:53:14.780Z,1.9
2023-04-20T03:54:14.726Z,1.9
2023-04-20T03:55:14.748Z,1.8
2023-04-20T03:56:14.729Z,1.8
2023-04-20T03:57:14.777Z,1.8
2023-04-20T03:58:15.275Z,1.8
2023-04-20T03:59:17.505Z,1.8
2023-04-20T04:00:19.240Z,1.7
2023-04-20T04:01:21.233Z,1.7
2023-04-20T04:02:23.367Z,1.7
2023-04-20T04:03:25.482Z,1.7
2023-04-20T04:04:27.533Z,1.7
2023-04-20T04:05:29.414Z,1.7
2023-04-20T04:06:31.290Z,1.7
2023-04-20T04:07:34.300Z,1.7
2023-04-20T04:08:36.240Z,1.6
2023-04-20T04:10:40.241Z,1.6
2023-04-20T04:11:42.242Z,1.6
2023-04-20T04:12:44.243Z,1.6
2023-04-20T04:13:46.242Z,1.6
2023-04-20T04:14:48.242Z,1.5
2023-04-20T04:16:04.438Z,1.5
2023-04-20T04:16:52.318Z,1.5
2023-04-20T04:17:56.304Z,1.5
2023-04-20T04:18:58.252Z,1.4
2023-04-20T04:20:00.290Z,1.4
2023-04-20T04:21:02.253Z,1.4
2023-04-20T04:22:04.294Z,1.4
2023-04-20T04:23:06.304Z,1.4
2023-04-20T04:24:08.250Z,1.4
2023-04-20T04:25:10.256Z,1.4
2023-04-20T04:26:12.249Z,1.4
2023-04-20T04:27:14.268Z,1.4
2023-04-20T04:28:16.309Z,1.3
2023-04-20T04:30:20.242Z,1.3
2023-04-20T04:31:22.343Z,1.3
2023-04-20T04:32:24.364Z,1.3
2023-04-20T04:33:26.320Z,1.3
2023-04-20T04:34:29.265Z,1.3
2023-04-20T04:35:31.341Z,1.3
2023-04-20T04:36:33.263Z,1.3
2023-04-20T04:37:35.264Z,1.3
2023-04-20T04:38:37.314Z,1.3
2023-04-20T04:39:52.361Z,1.3
2023-04-20T04:40:41.273Z,1.3
2023-04-20T04:41:44.272Z,1.3
2023-04-20T04:42:46.267Z,1.3
2023-04-20T04:43:48.313Z,1.4
2023-04-20T04:44:50.266Z,1.4
2023-04-20T04:45:52.339Z,1.4
2023-04-20T04:46:54.274Z,1.4
2023-04-20T04:47:56.285Z,1.4
2023-04-20T04:48:58.301Z,1.4
2023-04-20T04:50:00.269Z,1.5
2023-04-20T04:51:02.276Z,1.5
2023-04-20T04:52:04.316Z,1.5
2023-04-20T04:53:06.317Z,1.5
2023-04-20T04:54:08.276Z,1.5
2023-04-20T04:55:10.272Z,1.5
2023-04-20T04:56:12.268Z,1.4
2023-04-20T04:57:14.287Z,1.4
2023-04-20T04:58:16.323Z,1.4
2023-04-20T04:59:18.542Z,1.4
2023-04-20T05:00:20.290Z,1.4
2023-04-20T05:01:22.338Z,1.4
2023-04-20T05:02:24.527Z,1.4
2023-04-20T05:03:26.614Z,1.4
2023-04-20T05:04:28.460Z,1.4
2023-04-20T05:05:30.292Z,1.4
2023-04-20T05:06:32.286Z,1.4
2023-04-20T05:07:34.327Z,1.4
2023-04-20T05:08:36.269Z,1.4
2023-04-20T05:09:38.318Z,1.4
2023-04-20T05:11:42.281Z,1.4
2023-04-20T05:12:44.289Z,1.4
2023-04-20T05:13:46.369Z,1.4
2023-04-20T05:14:48.334Z,1.4
2023-04-20T05:15:50.413Z,1.4
2023-04-20T05:16:52.331Z,1.4
2023-04-20T05:17:56.319Z,1.4
2023-04-20T05:18:58.301Z,1.4
2023-04-20T05:20:00.285Z,1.4
2023-04-20T05:21:02.297Z,1.4
2023-04-20T05:22:04.396Z,1.5
2023-04-20T05:23:06.300Z,1.5
2023-04-20T05:24:08.325Z,1.5
2023-04-20T05:25:11.583Z,1.5
2023-04-20T05:26:12.286Z,1.5
2023-04-20T05:27:14.342Z,1.5
2023-04-20T05:28:16.297Z,1.6
2023-04-20T05:29:18.457Z,1.6
2023-04-20T05:31:22.364Z,1.5
2023-04-20T05:32:24.373Z,1.5
2023-04-20T05:33:26.350Z,1.5
2023-04-20T05:34:28.292Z,1.5
2023-04-20T05:35:30.350Z,1.5
2023-04-20T05:36:32.305Z,1.5
2023-04-20T05:37:35.317Z,1.5
2023-04-20T05:38:37.295Z,1.5
2023-04-20T05:39:39.295Z,1.5
2023-04-20T05:40:41.398Z,1.5
2023-04-20T05:41:43.303Z,1.5
2023-04-20T05:42:45.343Z,1.5
2023-04-20T05:43:47.301Z,1.5
2023-04-20T05:44:49.308Z,1.5
2023-04-20T05:45:52.374Z,1.6
2023-04-20T05:46:55.357Z,1.6
2023-04-20T05:47:57.372Z,1.6
2023-04-20T05:49:00.323Z,1.6
2023-04-20T05:50:02.309Z,1.6
2023-04-20T05:51:04.366Z,1.6
2023-04-20T05:52:06.310Z,1.6
2023-04-20T05:53:08.316Z,1.6
2023-04-20T05:54:10.355Z,1.6
2023-04-20T05:55:12.317Z,1.7
2023-04-20T05:56:14.411Z,1.7
2023-04-20T05:57:16.325Z,1.7
2023-04-20T05:58:18.318Z,1.7
2023-04-20T05:59:20.333Z,1.8
2023-04-20T06:00:24.558Z,1.8
2023-04-20T06:01:24.399Z,1.8
2023-04-20T06:02:26.459Z,1.8
2023-04-20T06:03:28.585Z,1.8
2023-04-20T06:04:30.789Z,1.8
2023-04-20T06:05:33.352Z,1.9
2023-04-20T06:06:35.358Z,1.9
2023-04-20T06:07:37.317Z,1.9
2023-04-20T06:08:39.325Z,2
2023-04-20T06:09:41.360Z,2.1
2023-04-20T06:10:43.332Z,2.1
2023-04-20T06:11:45.366Z,2.1
2023-04-20T06:12:47.335Z,2.1
2023-04-20T06:14:14.834Z,2.2
2023-04-20T06:15:14.833Z,2.2
2023-04-20T06:16:57.370Z,2.2
2023-04-20T06:19:01.325Z,2.3
2023-04-20T06:20:03.354Z,2.3
2023-04-20T06:21:05.359Z,2.3
2023-04-20T06:22:07.381Z,2.4
2023-04-20T06:23:09.344Z,2.4
2023-04-20T06:24:12.395Z,2.5
2023-04-20T06:25:14.383Z,2.5
2023-04-20T06:26:16.339Z,2.6
2023-04-20T06:27:19.426Z,2.6
2023-04-20T06:28:21.380Z,2.6
2023-04-20T06:30:25.338Z,2.7
2023-04-20T06:31:27.360Z,2.8
2023-04-20T06:32:29.412Z,2.8
2023-04-20T06:33:31.380Z,2.9
2023-04-20T06:34:33.351Z,3
2023-04-20T06:35:35.329Z,3
2023-04-20T06:36:37.353Z,3
2023-04-20T06:37:39.381Z,3.1
2023-04-20T06:40:45.396Z,3.3
2023-04-20T06:41:47.344Z,3.3
2023-04-20T06:42:49.417Z,3.4
2023-04-20T06:43:52.366Z,3.4
2023-04-20T06:44:55.356Z,3.4
2023-04-20T06:45:57.391Z,3.5
2023-04-20T06:46:59.413Z,3.5
2023-04-20T06:48:01.603Z,3.6
2023-04-20T06:49:03.357Z,3.7
2023-04-20T06:50:05.349Z,3.8
2023-04-20T06:51:07.351Z,3.8
2023-04-20T06:52:09.350Z,3.8
2023-04-20T06:53:11.397Z,3.8
2023-04-20T06:54:13.411Z,3.8
2023-04-20T06:55:15.355Z,3.8
2023-04-20T06:56:17.350Z,3.8
2023-04-20T06:57:19.349Z,3.7
2023-04-20T06:58:21.447Z,3.7
2023-04-20T06:59:23.354Z,3.7
2023-04-20T07:00:25.375Z,3.7
2023-04-20T07:02:14.944Z,3.8
2023-04-20T07:03:14.989Z,3.8
2023-04-20T07:04:35.378Z,3.8
2023-04-20T07:05:37.373Z,3.8
2023-04-20T07:06:39.390Z,3.9
2023-04-20T07:07:41.376Z,4
2023-04-20T07:08:43.491Z,4.1
2023-04-20T07:09:45.363Z,4.1
2023-04-20T07:10:47.365Z,4.1
2023-04-20T07:11:49.364Z,4.2
2023-04-20T07:12:52.395Z,4.1
2023-04-20T07:13:55.454Z,4.1
2023-04-20T07:14:57.371Z,4.2
2023-04-20T07:15:59.370Z,4.2
2023-04-20T07:17:01.366Z,4.3
2023-04-20T07:18:03.422Z,4.4
2023-04-20T07:19:05.404Z,4.5
2023-04-20T07:20:07.426Z,4.5
2023-04-20T07:21:09.415Z,4.6
2023-04-20T07:22:11.434Z,4.7
2023-04-20T07:23:13.380Z,4.7
2023-04-20T07:24:15.410Z,4.9
2023-04-20T07:25:17.374Z,4.9
2023-04-20T07:26:19.377Z,4.9
2023-04-20T07:27:21.426Z,5
2023-04-20T07:28:23.374Z,5
2023-04-20T07:29:25.380Z,5
2023-04-20T07:30:27.379Z,5.1
2023-04-20T07:31:29.424Z,5.1
2023-04-20T07:32:31.396Z,5.1
2023-04-20T07:33:33.386Z,5.1
2023-04-20T07:34:35.384Z,5.2
2023-04-20T07:35:37.424Z,5.2
2023-04-20T07:36:40.450Z,5.2
2023-04-20T07:37:42.398Z,5.2
2023-04-20T07:38:44.406Z,5.2
2023-04-20T07:39:46.397Z,5.2
2023-04-20T07:40:48.516Z,5.3
2023-04-20T07:41:50.422Z,5.3
2023-04-20T07:42:52.440Z,5.3
2023-04-20T07:43:56.391Z,5.3
2023-04-20T07:44:59.386Z,5.3
2023-04-20T07:46:01.562Z,5.3
2023-04-20T07:47:03.433Z,5.3
2023-04-20T07:48:05.528Z,5.4
2023-04-20T07:49:07.389Z,5.5
2023-04-20T07:50:09.455Z,5.5
2023-04-20T07:51:12.394Z,5.5
2023-04-20T07:52:17.001Z,5.6
2023-04-20T07:53:17.437Z,5.6
2023-04-20T07:54:19.393Z,5.6
2023-04-20T07:55:21.461Z,5.6
2023-04-20T07:56:23.398Z,5.7
2023-04-20T07:57:26.731Z,5.7
2023-04-20T07:58:28.452Z,5.6
2023-04-20T07:59:30.402Z,5.6
2023-04-20T08:00:32.399Z,5.6
2023-04-20T08:01:34.410Z,5.7
2023-04-20T08:02:36.564Z,5.6
2023-04-20T08:03:38.840Z,5.6
2023-04-20T08:04:40.677Z,5.7
2023-04-20T08:05:42.450Z,5.7
2023-04-20T08:06:45.413Z,5.7
2023-04-20T08:07:48.421Z,5.6
2023-04-20T08:08:49.411Z,5.6
2023-04-20T08:09:52.421Z,5.6
2023-04-20T08:10:55.404Z,5.6
2023-04-20T08:11:57.620Z,5.5
2023-04-20T08:12:59.454Z,5.5
2023-04-20T08:14:01.421Z,5.5
2023-04-20T08:15:03.447Z,5.5
2023-04-20T08:16:05.486Z,5.5
2023-04-20T08:17:07.416Z,5.5
2023-04-20T08:18:09.485Z,5.5
2023-04-20T08:19:11.428Z,5.5
2023-04-20T08:20:13.698Z,5.5
2023-04-20T08:21:15.434Z,5.6
2023-04-20T08:22:17.417Z,5.6
2023-04-20T08:23:19.474Z,5.6
2023-04-20T08:24:22.419Z,5.6
2023-04-20T08:25:25.370Z,5.6
2023-04-20T08:26:26.415Z,5.6
2023-04-20T08:27:28.421Z,5.7
2023-04-20T08:28:33.689Z,5.7
2023-04-20T08:29:32.418Z,5.8
2023-04-20T08:30:34.421Z,5.8
2023-04-20T08:31:36.467Z,5.9
2023-04-20T08:32:39.552Z,5.9
2023-04-20T08:33:41.465Z,5.9
2023-04-20T08:34:43.414Z,5.9
2023-04-20T08:35:45.467Z,6
2023-04-20T08:36:47.431Z,5.9
2023-04-20T08:37:49.474Z,6
2023-04-20T08:38:52.449Z,6
2023-04-20T08:39:55.436Z,6
2023-04-20T08:40:57.423Z,6
2023-04-20T08:41:59.418Z,6
2023-04-20T08:43:02.503Z,6
2023-04-20T08:44:04.437Z,6
2023-04-20T08:45:06.447Z,6
2023-04-20T08:46:08.463Z,6
2023-04-20T08:47:10.448Z,6
2023-04-20T08:48:12.483Z,6
2023-04-20T08:49:15.437Z,6
2023-04-20T08:50:17.431Z,5.9
2023-04-20T08:51:19.492Z,5.9
2023-04-20T08:52:21.432Z,5.9
2023-04-20T08:53:23.492Z,5.9
2023-04-20T08:54:25.440Z,5.9
2023-04-20T08:55:27.465Z,5.9
2023-04-20T08:56:29.461Z,5.9
2023-04-20T08:57:31.447Z,5.9
2023-04-20T08:58:33.476Z,5.9
2023-04-20T08:59:35.469Z,5.9
2023-04-20T09:00:37.435Z,6
2023-04-20T09:01:40.458Z,6
2023-04-20T09:02:42.709Z,6.1
2023-04-20T09:03:44.772Z,6.1
2023-04-20T09:04:46.520Z,6.2
2023-04-20T09:05:48.441Z,6.2
2023-04-20T09:06:50.555Z,6.2
2023-04-20T09:07:52.461Z,6.2
2023-04-20T09:08:55.449Z,6.3
2023-04-20T09:09:57.464Z,6.3
2023-04-20T09:10:59.447Z,6.3
2023-04-20T09:12:01.495Z,6.3
2023-04-20T09:13:03.448Z,6.3
2023-04-20T09:14:05.452Z,6.3
2023-04-20T09:15:08.449Z,6.3
2023-04-20T09:16:10.479Z,6.3
2023-04-20T09:17:12.507Z,6.3
2023-04-20T09:18:15.610Z,6.4
2023-04-20T09:19:17.475Z,6.4
2023-04-20T09:20:19.455Z,6.4
2023-04-20T09:21:21.454Z,6.4
2023-04-20T09:22:23.489Z,6.4
2023-04-20T09:23:26.455Z,6.4
2023-04-20T09:24:28.451Z,6.5
2023-04-20T09:25:30.459Z,6.5
2023-04-20T09:26:33.493Z,6.5
2023-04-20T09:27:35.511Z,6.6
2023-04-20T09:28:37.450Z,6.7
2023-04-20T09:29:39.460Z,6.7
2023-04-20T09:30:41.460Z,6.7
2023-04-20T09:31:43.530Z,6.8
2023-04-20T09:33:15.048Z,6.9
2023-04-20T09:34:15.280Z,6.9
2023-04-20T09:35:14.969Z,7
2023-04-20T09:36:14.962Z,7
2023-04-20T09:37:14.967Z,7.1
2023-04-20T09:39:15.033Z,7.1
2023-04-20T09:40:14.972Z,7.2
2023-04-20T09:41:14.984Z,7.2
2023-04-20T09:42:15.022Z,7.2
2023-04-20T09:43:15.500Z,7.2
2023-04-20T09:44:15.265Z,7.3
2023-04-20T09:46:15.064Z,7.3
2023-04-20T09:47:14.973Z,7.3
2023-04-20T09:48:14.984Z,7.3
2023-04-20T09:49:15.078Z,7.3
2023-04-20T09:51:15.071Z,7.4
2023-04-20T09:52:14.974Z,7.4
2023-04-20T09:53:15.018Z,7.4
2023-04-20T09:54:15.316Z,7.4
2023-04-20T09:55:34.520Z,7.5
2023-04-20T09:56:52.610Z,7.6
2023-04-20T09:59:15.017Z,7.8
2023-04-20T10:00:14.990Z,7.8
2023-04-20T10:01:15.005Z,7.8
2023-04-20T10:02:15.335Z,7.8
2023-04-20T10:03:15.118Z,7.8
2023-04-20T10:04:15.246Z,7.8
2023-04-20T10:05:14.985Z,7.9
2023-04-20T10:06:15.032Z,7.9
2023-04-20T10:07:14.983Z,7.9
2023-04-20T10:09:15.020Z,7.9
2023-04-20T10:10:15.046Z,8
2023-04-20T10:11:14.992Z,8
2023-04-20T10:12:14.986Z,8
2023-04-20T10:13:15.102Z,8.1
2023-04-20T10:14:15.060Z,8.1
2023-04-20T10:15:16.554Z,8.2
2023-04-20T10:16:18.542Z,8.2
2023-04-20T10:18:22.755Z,8.3
2023-04-20T10:19:24.498Z,8.3
2023-04-20T10:20:26.582Z,8.3
2023-04-20T10:21:28.528Z,8.3
2023-04-20T10:22:30.494Z,8.4
2023-04-20T10:23:32.539Z,8.4
2023-04-20T10:24:34.502Z,8.5
2023-04-20T10:25:36.619Z,8.5
2023-04-20T10:26:38.508Z,8.6
2023-04-20T10:27:40.518Z,8.6
2023-04-20T10:28:42.498Z,8.6
2023-04-20T10:29:44.501Z,8.6
2023-04-20T10:30:46.565Z,8.7
2023-04-20T10:32:15.059Z,8.7
2023-04-20T10:33:15.093Z,8.8
2023-04-20T10:34:15.219Z,8.8
2023-04-20T10:35:15.004Z,8.8
2023-04-20T10:38:15.052Z,8.9
2023-04-20T10:39:16.609Z,8.9
2023-04-20T10:40:15.051Z,8.9
2023-04-20T10:42:10.557Z,8.8
2023-04-20T10:43:12.516Z,8.8
2023-04-20T10:44:15.861Z,8.8
2023-04-20T10:45:17.586Z,8.7
2023-04-20T10:46:19.597Z,8.7
2023-04-20T10:47:21.574Z,8.7
2023-04-20T10:48:23.546Z,8.7
2023-04-20T10:49:25.510Z,8.7
2023-04-20T10:50:27.572Z,8.6
2023-04-20T10:51:29.560Z,8.6
2023-04-20T10:53:15.017Z,8.6
2023-04-20T10:54:16.918Z,8.5
2023-04-20T10:56:15.072Z,8.5
2023-04-20T10:57:15.017Z,8.5
2023-04-20T10:58:15.029Z,8.6
2023-04-20T10:59:15.060Z,8.6
2023-04-20T11:00:15.059Z,8.6
2023-04-20T11:01:15.197Z,8.6
2023-04-20T11:02:15.134Z,8.5
2023-04-20T11:03:15.106Z,8.5
2023-04-20T11:04:17.879Z,8.5
2023-04-20T11:05:15.171Z,8.5
2023-04-20T11:06:15.022Z,8.5
2023-04-20T11:07:15.119Z,8.5
2023-04-20T11:08:15.026Z,8.5
2023-04-20T11:09:15.141Z,8.5
2023-04-20T11:10:15.063Z,8.6
2023-04-20T11:11:15.038Z,8.5
2023-04-20T11:13:15.584Z,8.4
2023-04-20T11:14:17.529Z,8.4
2023-04-20T11:15:19.537Z,8.4
2023-04-20T11:16:21.826Z,8.4
2023-04-20T11:17:23.758Z,8.4
2023-04-20T11:18:25.536Z,8.3
2023-04-20T11:19:27.550Z,8.3
2023-04-20T11:20:29.532Z,8.3
2023-04-20T11:21:31.548Z,8.3
2023-04-20T11:22:34.649Z,8.3
2023-04-20T11:23:36.564Z,8.3
2023-04-20T11:24:38.572Z,8.3
2023-04-20T11:25:40.551Z,8.3
2023-04-20T11:26:42.564Z,8.2
2023-04-20T11:27:45.619Z,8.2
2023-04-20T11:28:47.550Z,8.2
2023-04-20T11:30:15.049Z,8.2
2023-04-20T11:31:15.125Z,8.2
2023-04-20T11:33:15.172Z,8.2
2023-04-20T11:34:15.058Z,8.2
2023-04-20T11:36:15.064Z,8.2
2023-04-20T11:37:15.062Z,8.2
2023-04-20T11:38:15.146Z,8.2
2023-04-20T11:43:22.142Z,8.4
2023-04-20T11:44:28.757Z,8.4
2023-04-20T11:45:26.128Z,8.5
2023-04-20T11:48:15.054Z,8.6
2023-04-20T11:50:15.187Z,8.6
2023-04-20T11:52:40.094Z,8.6
2023-04-20T11:53:42.104Z,8.7
2023-04-20T11:54:44.108Z,8.7
2023-04-20T11:55:46.097Z,8.7
2023-04-20T11:56:48.150Z,8.7
2023-04-20T11:57:50.125Z,8.7
2023-04-20T11:58:52.099Z,8.7
2023-04-20T11:59:54.114Z,8.8
2023-04-20T12:00:56.150Z,8.8
2023-04-20T12:01:58.252Z,8.8
2023-04-20T12:03:00.463Z,8.9
2023-04-20T12:04:02.527Z,8.9
2023-04-20T12:05:04.208Z,8.9
2023-04-20T12:06:08.134Z,9
2023-04-20T12:07:10.106Z,9
2023-04-20T12:08:12.152Z,9.1
2023-04-20T12:09:15.323Z,9.1
2023-04-20T12:10:17.111Z,9.1
2023-04-20T12:11:19.154Z,9.2
2023-04-20T12:12:22.119Z,9.2
2023-04-20T12:13:24.123Z,9.2
2023-04-20T12:14:26.113Z,9.3
2023-04-20T12:16:30.356Z,9.4
2023-04-20T12:18:35.114Z,9.4
2023-04-20T12:19:38.120Z,9.4
2023-04-20T12:20:40.157Z,9.5
2023-04-20T12:21:42.196Z,9.5
2023-04-20T12:22:44.168Z,9.6
2023-04-20T12:24:15.090Z,9.7
2023-04-20T12:25:15.089Z,9.8
2023-04-20T12:26:15.095Z,9.9
2023-04-20T12:27:15.084Z,9.9
2023-04-20T12:28:15.146Z,10
2023-04-20T12:30:15.085Z,10.1
2023-04-20T12:33:07.203Z,10.2
2023-04-20T12:36:13.214Z,10.3
2023-04-20T12:37:28.672Z,10.4
2023-04-20T12:39:19.138Z,10.5
2023-04-20T12:43:27.811Z,10.6
2023-04-20T12:47:35.810Z,10.5
2023-04-20T12:49:39.751Z,10.5
2023-04-20T12:51:43.803Z,10.5
2023-04-20T12:52:45.758Z,10.5
2023-04-20T12:53:47.760Z,10.6
2023-04-20T12:54:49.772Z,10.5
2023-04-20T12:56:00.442Z,10.6
2023-04-20T12:56:53.821Z,10.6
2023-04-20T12:57:55.761Z,10.6
2023-04-20T12:58:57.768Z,10.7
2023-04-20T12:59:59.760Z,10.7
2023-04-20T13:01:01.913Z,10.7
2023-04-20T13:02:03.897Z,10.7
2023-04-20T13:03:05.900Z,10.8
2023-04-20T13:04:08.031Z,10.8
2023-04-20T13:05:09.770Z,10.8
2023-04-20T13:06:14.112Z,10.9
2023-04-20T13:07:13.811Z,10.9
2023-04-20T13:08:15.772Z,11
2023-04-20T13:09:17.765Z,11
2023-04-20T13:10:19.779Z,11.1
2023-04-20T13:11:21.825Z,11.2
2023-04-20T13:13:15.108Z,11.1
2023-04-20T13:14:15.156Z,11.1
2023-04-20T13:15:17.311Z,11
2023-04-20T13:16:15.232Z,11.1
2023-04-20T13:17:15.164Z,11.1
2023-04-20T13:18:15.128Z,11
2023-04-20T13:19:15.144Z,11
2023-04-20T13:20:15.111Z,11
2023-04-20T13:21:15.170Z,11
2023-04-20T13:22:18.082Z,11
2023-04-20T13:23:15.438Z,11
2023-04-20T13:24:15.199Z,11
2023-04-20T13:25:15.136Z,11
2023-04-20T13:26:15.171Z,11
2023-04-20T13:27:15.144Z,11
2023-04-20T13:28:15.140Z,11
2023-04-20T13:29:15.173Z,10.9
2023-04-20T13:30:15.168Z,10.9
2023-04-20T13:31:15.131Z,10.9
2023-04-20T13:32:15.219Z,10.8
2023-04-20T13:33:15.201Z,10.8
2023-04-20T13:34:15.184Z,10.8
2023-04-20T13:35:15.175Z,10.8
2023-04-20T13:36:15.127Z,10.8
2023-04-20T13:37:15.142Z,10.8
2023-04-20T13:39:19.005Z,10.7
2023-04-20T13:40:20.796Z,10.7
2023-04-20T13:41:24.862Z,10.5
2023-04-20T13:42:26.823Z,10.3
2023-04-20T13:43:28.811Z,10.2
2023-04-20T13:44:30.797Z,10.1
2023-04-20T13:45:32.881Z,10
2023-04-20T13:46:34.845Z,9.8
2023-04-20T13:47:36.865Z,9.7
2023-04-20T13:48:38.810Z,9.6
2023-04-20T13:49:41.799Z,9.5
2023-04-20T13:50:43.810Z,9.4
2023-04-20T13:51:45.855Z,9.3
2023-04-20T13:52:47.809Z,9.3
2023-04-20T13:53:49.805Z,9.3
2023-04-20T13:55:04.727Z,9.3
2023-04-20T13:55:53.847Z,9.3
2023-04-20T13:56:55.814Z,9.3
2023-04-20T13:57:57.839Z,9.3
2023-04-20T13:58:59.803Z,9.3
2023-04-20T14:00:01.879Z,9.3
2023-04-20T14:01:03.865Z,9.3
2023-04-20T14:02:05.858Z,9.3
2023-04-20T14:04:09.984Z,9.2
2023-04-20T14:05:11.976Z,9.2
2023-04-20T14:06:15.043Z,9.3
2023-04-20T14:08:19.038Z,9.3
2023-04-20T14:10:24.006Z,9.2
2023-04-20T14:11:40.788Z,9.2
2023-04-20T14:13:31.608Z,9.2
2023-04-20T14:14:46.736Z,9.2
2023-04-20T14:15:35.650Z,9.2
2023-04-20T14:16:38.611Z,9.2
2023-04-20T14:17:40.692Z,9.1
2023-04-20T14:18:42.598Z,9.1
2023-04-20T14:20:46.637Z,9.1
2023-04-20T14:21:48.615Z,9.1
2023-04-20T14:22:50.653Z,9.1
2023-04-20T14:23:52.705Z,9
2023-04-20T14:24:54.664Z,9
2023-04-20T14:25:56.612Z,9
2023-04-20T14:26:58.627Z,9
2023-04-20T14:29:02.658Z,9
2023-04-20T14:30:04.686Z,9
2023-04-20T14:31:06.665Z,9
2023-04-20T14:32:08.709Z,9
2023-04-20T14:33:10.662Z,9
2023-04-20T14:34:12.644Z,9
2023-04-20T14:35:15.630Z,9
2023-04-20T14:36:17.712Z,9
2023-04-20T14:37:19.624Z,9
2023-04-20T14:38:21.671Z,9
2023-04-20T14:39:23.671Z,8.9
2023-04-20T14:40:27.634Z,8.9
2023-04-20T14:41:30.741Z,8.9
2023-04-20T14:43:15.243Z,8.9
2023-04-20T14:44:15.196Z,8.9
2023-04-20T14:45:15.228Z,8.9
2023-04-20T14:46:15.227Z,8.9
2023-04-20T14:47:15.187Z,8.8
2023-04-20T14:48:15.245Z,8.8
2023-04-20T14:50:15.199Z,8.8
2023-04-20T14:51:15.198Z,8.8
2023-04-20T14:52:15.200Z,8.8
2023-04-20T14:54:15.544Z,8.9
2023-04-20T14:55:15.189Z,9
2023-04-20T14:56:15.199Z,9
2023-04-20T14:57:15.205Z,9
2023-04-20T14:58:15.217Z,9.1
2023-04-20T14:59:15.255Z,9.1
2023-04-20T15:00:15.228Z,9.1
2023-04-20T15:01:15.249Z,9.2
2023-04-20T15:02:15.309Z,9.2
2023-04-20T15:04:15.556Z,9.3
2023-04-20T15:05:16.020Z,9.3
2023-04-20T15:06:17.642Z,9.4
2023-04-20T15:07:19.658Z,9.4
2023-04-20T15:08:21.636Z,9.4
2023-04-20T15:09:23.711Z,9.4
2023-04-20T15:10:27.700Z,9.4
2023-04-20T15:11:29.646Z,9.4
2023-04-20T15:12:32.651Z,9.4
2023-04-20T15:13:34.752Z,9.4
2023-04-20T15:15:48.474Z,9.4
2023-04-20T15:16:41.422Z,9.4
2023-04-20T15:17:43.939Z,9.4
2023-04-20T15:18:46.761Z,9.4
2023-04-20T15:19:48.796Z,9.4
2023-04-20T15:22:54.878Z,9.3
2023-04-20T15:23:56.744Z,9.4
2023-04-20T15:25:15.273Z,9.3